< Typhoon 201305 2013 Season Typhoon 201307 >
Typhoon 201306 (RUMBIA)
General InformationTrack Information on Google MapsDetailed Wind InformationForecast History on Google MapsAccess Analytics MapList of All Images || NewsDisaster Info.WeblogTrackbackTyphoon FrontTwiphoonTyphoon Now!Typhoon ImaginationDisaster Info. XMLResourceGoogle EarthGE AnimationAtom FeedGeoJSON
Detalied Best Track (Time Zone = UTC)
Year Month Day Hour Lat. Long. Pressure (hPa) Wind (kt) Class Image Chart
2013 6 27 00 9.1 132.5 1008 0 2 Image Chart
2013 6 27 06 9.1 132.0 1006 0 2 Image Chart
2013 6 27 12 9.0 131.5 1006 0 2 Image Chart
2013 6 27 18 8.9 130.5 1004 0 2 Image Chart
2013 6 28 00 9.5 129.3 1006 0 2 Image Chart
2013 6 28 06 10.0 128.5 1006 0 2 Image Chart
2013 6 28 12 10.3 128.0 1002 35 3 Image Chart
2013 6 28 18 11.5 126.2 1002 35 3 Image Chart
2013 6 29 00 11.7 125.0 1002 35 3 Image Chart
2013 6 29 06 12.9 124.1 1002 35 3 Image Chart
2013 6 29 12 13.7 122.8 1002 35 3 Image Chart
2013 6 29 18 13.9 121.1 1000 35 3 Image Chart
2013 6 30 00 14.6 119.7 1000 35 3 Image Chart
2013 6 30 06 15.3 118.6 996 40 3 Image Chart
2013 6 30 12 16.4 117.2 994 40 3 Image Chart
2013 6 30 18 17.5 115.6 990 45 3 Image Chart
2013 7 1 00 18.3 113.9 990 45 3 Image Chart
2013 7 1 06 19.0 112.6 985 50 4 Image Chart
2013 7 1 12 19.8 111.6 985 50 4 Image Chart
2013 7 1 18 20.6 110.5 990 45 3 Image Chart
2013 7 2 00 21.4 110.0 992 45 3 Image Chart
2013 7 2 06 23.1 109.0 996 35 3 Image Chart
2013 7 2 12 24.0 108.4 1000 0 2 Image Chart
Japan Meteorological Agency Best Track Data | Correction Date : 2013-07-24
< Typhoon 201305 2013 Season Typhoon 201307 >

Help